sensor_id;sensor_type;location;lat;lon;timestamp;temperature;humidity
12408;DHT22;6268;48.188;17.134;2023-03-14T00:01:40;9.20;99.90
12408;DHT22;6268;48.188;17.134;2023-03-14T00:04:12;9.20;99.90
12408;DHT22;6268;48.188;17.134;2023-03-14T00:06:41;9.20;99.90
12408;DHT22;6268;48.188;17.134;2023-03-14T00:09:10;9.10;99.90
12408;DHT22;6268;48.188;17.134;2023-03-14T00:11:38;9.10;99.90
12408;DHT22;6268;48.188;17.134;2023-03-14T00:14:09;9.20;99.90
12408;DHT22;6268;48.188;17.134;2023-03-14T00:16:39;9.20;99.90
12408;DHT22;6268;48.188;17.134;2023-03-14T00:19:08;9.10;99.90
12408;DHT22;6268;48.188;17.134;2023-03-14T00:21:37;9.20;99.90
12408;DHT22;6268;48.188;17.134;2023-03-14T00:24:06;9.20;99.90
12408;DHT22;6268;48.188;17.134;2023-03-14T00:26:36;9.10;99.90
12408;DHT22;6268;48.188;17.134;2023-03-14T00:29:05;9.10;99.90
12408;DHT22;6268;48.188;17.134;2023-03-14T00:31:35;9.10;99.90
12408;DHT22;6268;48.188;17.134;2023-03-14T00:34:06;9.10;99.90
12408;DHT22;6268;48.188;17.134;2023-03-14T00:36:35;9.10;99.90
12408;DHT22;6268;48.188;17.134;2023-03-14T00:39:04;9.10;99.90
12408;DHT22;6268;48.188;17.134;2023-03-14T00:41:33;9.10;99.90
12408;DHT22;6268;48.188;17.134;2023-03-14T00:44:02;9.10;99.90
12408;DHT22;6268;48.188;17.134;2023-03-14T00:46:31;9.10;99.90
12408;DHT22;6268;48.188;17.134;2023-03-14T00:49:02;9.00;99.90
12408;DHT22;6268;48.188;17.134;2023-03-14T00:51:31;8.90;99.90
12408;DHT22;6268;48.188;17.134;2023-03-14T00:54:00;8.90;99.90
12408;DHT22;6268;48.188;17.134;2023-03-14T00:56:28;8.90;99.90
12408;DHT22;6268;48.188;17.134;2023-03-14T00:58:58;8.80;99.90
12408;DHT22;6268;48.188;17.134;2023-03-14T01:01:27;8.80;99.90
12408;DHT22;6268;48.188;17.134;2023-03-14T01:03:56;8.80;99.90
12408;DHT22;6268;48.188;17.134;2023-03-14T01:06:28;8.80;99.90
12408;DHT22;6268;48.188;17.134;2023-03-14T01:08:59;8.80;99.90
12408;DHT22;6268;48.188;17.134;2023-03-14T01:11:30;8.80;99.90
12408;DHT22;6268;48.188;17.134;2023-03-14T01:14:00;8.90;99.90
12408;DHT22;6268;48.188;17.134;2023-03-14T01:16:32;8.80;99.90
12408;DHT22;6268;48.188;17.134;2023-03-14T01:19:03;8.80;99.90
12408;DHT22;6268;48.188;17.134;2023-03-14T01:21:35;8.70;99.90
12408;DHT22;6268;48.188;17.134;2023-03-14T01:24:05;8.80;99.90
12408;DHT22;6268;48.188;17.134;2023-03-14T01:26:35;8.80;99.90
12408;DHT22;6268;48.188;17.134;2023-03-14T01:29:04;8.70;99.90
12408;DHT22;6268;48.188;17.134;2023-03-14T01:31:33;8.70;99.90
12408;DHT22;6268;48.188;17.134;2023-03-14T01:34:02;8.60;99.90
12408;DHT22;6268;48.188;17.134;2023-03-14T01:36:33;8.70;99.90
12408;DHT22;6268;48.188;17.134;2023-03-14T01:39:39;8.70;99.90
12408;DHT22;6268;48.188;17.134;2023-03-14T01:42:26;8.60;99.90
12408;DHT22;6268;48.188;17.134;2023-03-14T01:44:57;8.70;99.90
12408;DHT22;6268;48.188;17.134;2023-03-14T01:47:27;8.70;99.90
12408;DHT22;6268;48.188;17.134;2023-03-14T01:49:59;8.60;99.90
12408;DHT22;6268;48.188;17.134;2023-03-14T01:52:36;8.60;99.90
12408;DHT22;6268;48.188;17.134;2023-03-14T01:55:11;8.60;99.90
12408;DHT22;6268;48.188;17.134;2023-03-14T01:57:45;8.60;99.90
12408;DHT22;6268;48.188;17.134;2023-03-14T02:04:38;8.60;99.90
12408;DHT22;6268;48.188;17.134;2023-03-14T02:07:11;8.60;99.90
12408;DHT22;6268;48.188;17.134;2023-03-14T02:09:45;8.70;99.90
12408;DHT22;6268;48.188;17.134;2023-03-14T02:12:16;8.60;99.90
12408;DHT22;6268;48.188;17.134;2023-03-14T02:14:47;8.60;99.90
12408;DHT22;6268;48.188;17.134;2023-03-14T02:17:18;8.60;99.90
12408;DHT22;6268;48.188;17.134;2023-03-14T02:20:03;8.70;99.90
12408;DHT22;6268;48.188;17.134;2023-03-14T02:22:50;8.70;99.90
12408;DHT22;6268;48.188;17.134;2023-03-14T02:25:28;8.70;99.90
12408;DHT22;6268;48.188;17.134;2023-03-14T02:28:05;8.60;99.90
12408;DHT22;6268;48.188;17.134;2023-03-14T02:30:34;8.60;99.90
12408;DHT22;6268;48.188;17.134;2023-03-14T02:33:05;8.60;99.90
12408;DHT22;6268;48.188;17.134;2023-03-14T02:35:37;8.60;99.90
12408;DHT22;6268;48.188;17.134;2023-03-14T02:38:15;8.60;99.90
12408;DHT22;6268;48.188;17.134;2023-03-14T02:40:49;8.60;99.90
12408;DHT22;6268;48.188;17.134;2023-03-14T02:43:19;8.50;99.90
12408;DHT22;6268;48.188;17.134;2023-03-14T02:45:49;8.60;99.90
12408;DHT22;6268;48.188;17.134;2023-03-14T02:48:22;8.60;99.90
12408;DHT22;6268;48.188;17.134;2023-03-14T02:50:56;8.60;99.90
12408;DHT22;6268;48.188;17.134;2023-03-14T02:53:28;8.60;99.90
12408;DHT22;6268;48.188;17.134;2023-03-14T02:55:59;8.60;99.90
12408;DHT22;6268;48.188;17.134;2023-03-14T02:58:30;8.60;99.90
12408;DHT22;6268;48.188;17.134;2023-03-14T03:00:59;8.60;99.90
12408;DHT22;6268;48.188;17.134;2023-03-14T03:03:28;8.60;99.90
12408;DHT22;6268;48.188;17.134;2023-03-14T03:05:57;8.60;99.90
12408;DHT22;6268;48.188;17.134;2023-03-14T03:08:27;8.60;99.90
12408;DHT22;6268;48.188;17.134;2023-03-14T03:10:57;8.70;99.90
12408;DHT22;6268;48.188;17.134;2023-03-14T03:13:27;8.70;99.90
12408;DHT22;6268;48.188;17.134;2023-03-14T03:15:57;8.70;99.90
12408;DHT22;6268;48.188;17.134;2023-03-14T03:18:26;8.80;99.90
12408;DHT22;6268;48.188;17.134;2023-03-14T03:20:56;8.80;99.90
12408;DHT22;6268;48.188;17.134;2023-03-14T03:23:29;8.80;99.90
12408;DHT22;6268;48.188;17.134;2023-03-14T03:25:58;8.80;99.90
12408;DHT22;6268;48.188;17.134;2023-03-14T03:28:27;8.70;99.90
12408;DHT22;6268;48.188;17.134;2023-03-14T03:30:57;8.70;99.90
12408;DHT22;6268;48.188;17.134;2023-03-14T03:37:27;8.70;99.90
12408;DHT22;6268;48.188;17.134;2023-03-14T03:39:58;8.70;99.90
12408;DHT22;6268;48.188;17.134;2023-03-14T03:42:27;8.80;99.90
12408;DHT22;6268;48.188;17.134;2023-03-14T03:44:56;8.80;99.90
12408;DHT22;6268;48.188;17.134;2023-03-14T03:47:27;8.80;99.90
12408;DHT22;6268;48.188;17.134;2023-03-14T03:49:56;8.80;99.90
12408;DHT22;6268;48.188;17.134;2023-03-14T03:52:25;8.80;99.90
12408;DHT22;6268;48.188;17.134;2023-03-14T03:54:54;8.80;99.90
12408;DHT22;6268;48.188;17.134;2023-03-14T03:57:23;8.80;99.90
12408;DHT22;6268;48.188;17.134;2023-03-14T03:59:52;8.80;99.90
12408;DHT22;6268;48.188;17.134;2023-03-14T04:02:21;8.70;99.90
12408;DHT22;6268;48.188;17.134;2023-03-14T04:04:52;8.70;99.90
12408;DHT22;6268;48.188;17.134;2023-03-14T04:07:21;8.70;99.90
12408;DHT22;6268;48.188;17.134;2023-03-14T04:09:49;8.70;99.90
12408;DHT22;6268;48.188;17.134;2023-03-14T04:12:18;8.70;99.90
12408;DHT22;6268;48.188;17.134;2023-03-14T04:14:47;8.60;99.90
12408;DHT22;6268;48.188;17.134;2023-03-14T04:17:16;8.60;99.90
12408;DHT22;6268;48.188;17.134;2023-03-14T04:19:47;8.60;99.90
12408;DHT22;6268;48.188;17.134;2023-03-14T04:22:20;8.50;99.90
12408;DHT22;6268;48.188;17.134;2023-03-14T04:24:49;8.50;99.90
12408;DHT22;6268;48.188;17.134;2023-03-14T04:31:06;8.60;99.90
12408;DHT22;6268;48.188;17.134;2023-03-14T04:33:36;8.60;99.90
12408;DHT22;6268;48.188;17.134;2023-03-14T04:36:06;8.50;99.90
12408;DHT22;6268;48.188;17.134;2023-03-14T04:38:41;8.60;99.90
12408;DHT22;6268;48.188;17.134;2023-03-14T04:41:10;8.50;99.90
12408;DHT22;6268;48.188;17.134;2023-03-14T04:43:38;8.40;99.90
12408;DHT22;6268;48.188;17.134;2023-03-14T04:46:07;8.50;99.90
12408;DHT22;6268;48.188;17.134;2023-03-14T04:48:36;8.50;99.90
12408;DHT22;6268;48.188;17.134;2023-03-14T04:51:06;8.50;99.90
12408;DHT22;6268;48.188;17.134;2023-03-14T04:53:35;8.60;99.90
12408;DHT22;6268;48.188;17.134;2023-03-14T04:56:06;8.60;99.90
12408;DHT22;6268;48.188;17.134;2023-03-14T04:58:36;8.60;99.90
12408;DHT22;6268;48.188;17.134;2023-03-14T05:01:05;8.60;99.90
12408;DHT22;6268;48.188;17.134;2023-03-14T05:03:35;8.50;99.90
12408;DHT22;6268;48.188;17.134;2023-03-14T05:06:05;8.50;99.90
12408;DHT22;6268;48.188;17.134;2023-03-14T05:08:34;8.60;99.90
12408;DHT22;6268;48.188;17.134;2023-03-14T05:11:05;8.60;99.90
12408;DHT22;6268;48.188;17.134;2023-03-14T05:13:34;8.50;99.90
12408;DHT22;6268;48.188;17.134;2023-03-14T05:16:08;8.40;99.90
12408;DHT22;6268;48.188;17.134;2023-03-14T05:18:38;8.40;99.90
12408;DHT22;6268;48.188;17.134;2023-03-14T05:21:07;8.30;99.90
12408;DHT22;6268;48.188;17.134;2023-03-14T05:23:36;8.40;99.90
12408;DHT22;6268;48.188;17.134;2023-03-14T05:26:06;8.50;99.90
12408;DHT22;6268;48.188;17.134;2023-03-14T05:28:35;8.50;99.90
12408;DHT22;6268;48.188;17.134;2023-03-14T05:31:06;8.60;99.90
12408;DHT22;6268;48.188;17.134;2023-03-14T05:33:35;8.50;99.90
12408;DHT22;6268;48.188;17.134;2023-03-14T05:36:05;8.50;99.90
12408;DHT22;6268;48.188;17.134;2023-03-14T05:38:35;8.40;99.90
12408;DHT22;6268;48.188;17.134;2023-03-14T05:41:06;8.30;99.90
12408;DHT22;6268;48.188;17.134;2023-03-14T05:43:34;8.30;99.90
12408;DHT22;6268;48.188;17.134;2023-03-14T05:46:03;8.30;99.90
12408;DHT22;6268;48.188;17.134;2023-03-14T05:48:33;8.30;99.90
12408;DHT22;6268;48.188;17.134;2023-03-14T05:51:01;8.40;99.90
12408;DHT22;6268;48.188;17.134;2023-03-14T05:53:30;8.30;99.90
12408;DHT22;6268;48.188;17.134;2023-03-14T05:55:59;8.30;99.90
12408;DHT22;6268;48.188;17.134;2023-03-14T05:58:29;8.40;99.90
12408;DHT22;6268;48.188;17.134;2023-03-14T06:01:01;8.40;99.90
12408;DHT22;6268;48.188;17.134;2023-03-14T06:03:30;8.40;99.90
12408;DHT22;6268;48.188;17.134;2023-03-14T06:06:00;8.40;99.90
12408;DHT22;6268;48.188;17.134;2023-03-14T06:08:29;8.40;99.90
12408;DHT22;6268;48.188;17.134;2023-03-14T06:10:58;8.50;99.90
12408;DHT22;6268;48.188;17.134;2023-03-14T06:13:26;8.50;99.90
12408;DHT22;6268;48.188;17.134;2023-03-14T06:15:57;8.50;99.90
12408;DHT22;6268;48.188;17.134;2023-03-14T06:18:26;8.50;99.90
12408;DHT22;6268;48.188;17.134;2023-03-14T06:20:55;8.50;99.90
12408;DHT22;6268;48.188;17.134;2023-03-14T06:23:24;8.40;99.90
12408;DHT22;6268;48.188;17.134;2023-03-14T06:25:53;8.50;99.90
12408;DHT22;6268;48.188;17.134;2023-03-14T06:28:22;8.50;99.90
12408;DHT22;6268;48.188;17.134;2023-03-14T06:30:52;8.60;99.90
12408;DHT22;6268;48.188;17.134;2023-03-14T06:33:22;8.80;99.90
12408;DHT22;6268;48.188;17.134;2023-03-14T06:35:51;8.90;99.90
12408;DHT22;6268;48.188;17.134;2023-03-14T06:38:20;8.90;99.90
12408;DHT22;6268;48.188;17.134;2023-03-14T06:40:49;8.90;99.90
12408;DHT22;6268;48.188;17.134;2023-03-14T06:43:18;9.00;99.90
12408;DHT22;6268;48.188;17.134;2023-03-14T06:45:47;9.10;99.90
12408;DHT22;6268;48.188;17.134;2023-03-14T06:48:15;9.10;99.90
12408;DHT22;6268;48.188;17.134;2023-03-14T06:50:47;9.30;99.90
12408;DHT22;6268;48.188;17.134;2023-03-14T06:53:17;9.40;99.90
12408;DHT22;6268;48.188;17.134;2023-03-14T06:55:46;9.80;99.90
12408;DHT22;6268;48.188;17.134;2023-03-14T06:58:14;10.10;99.90
12408;DHT22;6268;48.188;17.134;2023-03-14T07:00:44;10.50;99.90
12408;DHT22;6268;48.188;17.134;2023-03-14T07:03:14;10.50;99.90
12408;DHT22;6268;48.188;17.134;2023-03-14T07:05:43;10.30;99.90
12408;DHT22;6268;48.188;17.134;2023-03-14T07:08:13;10.50;99.90
12408;DHT22;6268;48.188;17.134;2023-03-14T07:10:42;10.60;99.90
12408;DHT22;6268;48.188;17.134;2023-03-14T07:13:11;10.70;99.90
12408;DHT22;6268;48.188;17.134;2023-03-14T07:15:40;10.70;99.90
12408;DHT22;6268;48.188;17.134;2023-03-14T07:18:09;10.80;99.90
12408;DHT22;6268;48.188;17.134;2023-03-14T07:20:38;10.80;99.90
12408;DHT22;6268;48.188;17.134;2023-03-14T07:23:06;11.10;99.90
12408;DHT22;6268;48.188;17.134;2023-03-14T07:25:37;11.30;99.90
12408;DHT22;6268;48.188;17.134;2023-03-14T07:28:06;11.50;99.90
12408;DHT22;6268;48.188;17.134;2023-03-14T07:30:34;11.60;99.90
12408;DHT22;6268;48.188;17.134;2023-03-14T07:33:03;11.70;99.90
12408;DHT22;6268;48.188;17.134;2023-03-14T07:35:32;11.90;99.90
12408;DHT22;6268;48.188;17.134;2023-03-14T07:38:01;12.10;99.90
12408;DHT22;6268;48.188;17.134;2023-03-14T07:40:30;12.40;99.90
12408;DHT22;6268;48.188;17.134;2023-03-14T07:43:00;12.70;99.90
12408;DHT22;6268;48.188;17.134;2023-03-14T07:45:29;12.90;99.90
12408;DHT22;6268;48.188;17.134;2023-03-14T07:47:57;13.10;99.90
12408;DHT22;6268;48.188;17.134;2023-03-14T07:50:27;13.40;99.90
12408;DHT22;6268;48.188;17.134;2023-03-14T07:52:56;13.60;99.90
12408;DHT22;6268;48.188;17.134;2023-03-14T07:55:25;13.80;99.90
12408;DHT22;6268;48.188;17.134;2023-03-14T07:57:53;13.90;99.90
12408;DHT22;6268;48.188;17.134;2023-03-14T08:00:24;13.90;99.90
12408;DHT22;6268;48.188;17.134;2023-03-14T08:02:53;13.80;99.90
12408;DHT22;6268;48.188;17.134;2023-03-14T08:05:21;13.40;99.90
12408;DHT22;6268;48.188;17.134;2023-03-14T08:07:50;13.30;99.90
12408;DHT22;6268;48.188;17.134;2023-03-14T08:10:19;13.20;99.90
12408;DHT22;6268;48.188;17.134;2023-03-14T08:12:53;12.90;99.90
12408;DHT22;6268;48.188;17.134;2023-03-14T08:15:25;12.90;99.90
12408;DHT22;6268;48.188;17.134;2023-03-14T08:17:54;12.80;99.90
12408;DHT22;6268;48.188;17.134;2023-03-14T08:20:25;12.60;99.90
12408;DHT22;6268;48.188;17.134;2023-03-14T08:22:56;12.60;99.90
12408;DHT22;6268;48.188;17.134;2023-03-14T08:25:26;12.60;99.90
12408;DHT22;6268;48.188;17.134;2023-03-14T08:27:56;12.60;99.90
12408;DHT22;6268;48.188;17.134;2023-03-14T08:30:26;12.80;99.90
12408;DHT22;6268;48.188;17.134;2023-03-14T08:32:56;12.90;99.90
12408;DHT22;6268;48.188;17.134;2023-03-14T08:35:26;13.00;99.90
12408;DHT22;6268;48.188;17.134;2023-03-14T08:37:55;13.10;99.90
12408;DHT22;6268;48.188;17.134;2023-03-14T08:40:24;12.90;99.90
12408;DHT22;6268;48.188;17.134;2023-03-14T08:42:53;12.80;99.90
12408;DHT22;6268;48.188;17.134;2023-03-14T08:45:21;12.90;99.90
12408;DHT22;6268;48.188;17.134;2023-03-14T08:47:53;13.00;99.90
12408;DHT22;6268;48.188;17.134;2023-03-14T08:50:22;13.20;99.90
12408;DHT22;6268;48.188;17.134;2023-03-14T08:52:51;13.10;99.90
12408;DHT22;6268;48.188;17.134;2023-03-14T08:55:20;13.00;99.90
12408;DHT22;6268;48.188;17.134;2023-03-14T08:57:49;12.80;99.90
12408;DHT22;6268;48.188;17.134;2023-03-14T09:00:18;12.70;99.90
12408;DHT22;6268;48.188;17.134;2023-03-14T09:02:48;12.80;99.90
12408;DHT22;6268;48.188;17.134;2023-03-14T09:05:18;12.90;99.90
12408;DHT22;6268;48.188;17.134;2023-03-14T09:07:47;12.90;99.90
12408;DHT22;6268;48.188;17.134;2023-03-14T09:10:16;13.10;99.90
12408;DHT22;6268;48.188;17.134;2023-03-14T09:12:45;13.10;99.90
12408;DHT22;6268;48.188;17.134;2023-03-14T09:15:14;12.90;99.90
12408;DHT22;6268;48.188;17.134;2023-03-14T09:17:43;12.90;99.90
12408;DHT22;6268;48.188;17.134;2023-03-14T09:20:12;12.90;99.90
12408;DHT22;6268;48.188;17.134;2023-03-14T09:22:42;12.90;99.90
12408;DHT22;6268;48.188;17.134;2023-03-14T09:25:11;12.80;99.90
12408;DHT22;6268;48.188;17.134;2023-03-14T09:27:40;12.80;99.90
12408;DHT22;6268;48.188;17.134;2023-03-14T09:30:10;12.90;99.90
12408;DHT22;6268;48.188;17.134;2023-03-14T09:32:39;12.90;99.90
12408;DHT22;6268;48.188;17.134;2023-03-14T09:35:08;12.90;99.90
12408;DHT22;6268;48.188;17.134;2023-03-14T09:37:38;12.90;99.90
12408;DHT22;6268;48.188;17.134;2023-03-14T09:40:12;12.80;99.90
12408;DHT22;6268;48.188;17.134;2023-03-14T09:42:42;12.80;99.90
12408;DHT22;6268;48.188;17.134;2023-03-14T09:45:16;12.70;99.90
12408;DHT22;6268;48.188;17.134;2023-03-14T09:47:54;12.70;99.90
12408;DHT22;6268;48.188;17.134;2023-03-14T09:50:29;12.70;99.90
12408;DHT22;6268;48.188;17.134;2023-03-14T09:53:04;12.70;99.90
12408;DHT22;6268;48.188;17.134;2023-03-14T09:55:39;12.90;99.90
12408;DHT22;6268;48.188;17.134;2023-03-14T09:58:12;13.10;99.90
12408;DHT22;6268;48.188;17.134;2023-03-14T10:00:42;13.30;99.90
12408;DHT22;6268;48.188;17.134;2023-03-14T10:03:24;13.50;99.90
12408;DHT22;6268;48.188;17.134;2023-03-14T10:05:57;13.70;99.90
12408;DHT22;6268;48.188;17.134;2023-03-14T10:08:27;13.60;99.90
12408;DHT22;6268;48.188;17.134;2023-03-14T10:10:57;13.70;99.90
12408;DHT22;6268;48.188;17.134;2023-03-14T10:13:27;13.80;99.90
12408;DHT22;6268;48.188;17.134;2023-03-14T10:16:00;13.80;99.90
12408;DHT22;6268;48.188;17.134;2023-03-14T10:18:33;13.70;99.90
12408;DHT22;6268;48.188;17.134;2023-03-14T10:21:04;13.60;99.90
12408;DHT22;6268;48.188;17.134;2023-03-14T10:23:45;13.70;99.90
12408;DHT22;6268;48.188;17.134;2023-03-14T10:26:18;13.70;99.90
12408;DHT22;6268;48.188;17.134;2023-03-14T10:28:54;13.80;99.90
12408;DHT22;6268;48.188;17.134;2023-03-14T10:31:46;13.90;99.90
12408;DHT22;6268;48.188;17.134;2023-03-14T10:34:23;13.90;99.90
12408;DHT22;6268;48.188;17.134;2023-03-14T10:36:54;13.80;99.90
12408;DHT22;6268;48.188;17.134;2023-03-14T10:39:32;13.70;99.90
12408;DHT22;6268;48.188;17.134;2023-03-14T10:42:17;13.80;99.90
12408;DHT22;6268;48.188;17.134;2023-03-14T10:44:54;14.00;99.90
12408;DHT22;6268;48.188;17.134;2023-03-14T10:47:26;14.00;99.90
12408;DHT22;6268;48.188;17.134;2023-03-14T10:49:56;14.10;99.90
12408;DHT22;6268;48.188;17.134;2023-03-14T10:52:47;13.80;99.90
12408;DHT22;6268;48.188;17.134;2023-03-14T10:55:40;13.90;99.90
12408;DHT22;6268;48.188;17.134;2023-03-14T10:58:24;13.60;99.90
12408;DHT22;6268;48.188;17.134;2023-03-14T11:01:00;13.60;99.90
12408;DHT22;6268;48.188;17.134;2023-03-14T11:03:37;13.50;99.90
12408;DHT22;6268;48.188;17.134;2023-03-14T11:06:19;13.60;99.90
12408;DHT22;6268;48.188;17.134;2023-03-14T11:08:55;13.60;99.90
12408;DHT22;6268;48.188;17.134;2023-03-14T11:11:32;13.50;99.90
12408;DHT22;6268;48.188;17.134;2023-03-14T11:14:12;13.50;99.90
12408;DHT22;6268;48.188;17.134;2023-03-14T11:16:52;13.50;99.90
12408;DHT22;6268;48.188;17.134;2023-03-14T11:19:37;13.40;99.90
12408;DHT22;6268;48.188;17.134;2023-03-14T11:22:21;13.30;99.90
12408;DHT22;6268;48.188;17.134;2023-03-14T11:25:09;13.30;99.90
12408;DHT22;6268;48.188;17.134;2023-03-14T11:27:52;13.40;99.90
12408;DHT22;6268;48.188;17.134;2023-03-14T11:30:35;13.50;99.90
12408;DHT22;6268;48.188;17.134;2023-03-14T11:33:15;13.40;99.90
12408;DHT22;6268;48.188;17.134;2023-03-14T11:35:49;13.40;99.90
12408;DHT22;6268;48.188;17.134;2023-03-14T11:38:29;13.30;99.90
12408;DHT22;6268;48.188;17.134;2023-03-14T11:41:03;13.30;99.90
12408;DHT22;6268;48.188;17.134;2023-03-14T11:43:39;13.30;99.90
12408;DHT22;6268;48.188;17.134;2023-03-14T11:46:15;13.20;99.90
12408;DHT22;6268;48.188;17.134;2023-03-14T11:48:57;13.20;99.90
12408;DHT22;6268;48.188;17.134;2023-03-14T11:51:32;13.30;99.90
12408;DHT22;6268;48.188;17.134;2023-03-14T11:54:12;13.30;99.90
12408;DHT22;6268;48.188;17.134;2023-03-14T11:56:48;13.30;99.90
12408;DHT22;6268;48.188;17.134;2023-03-14T11:59:25;13.30;99.90
12408;DHT22;6268;48.188;17.134;2023-03-14T12:02:02;13.30;99.90
12408;DHT22;6268;48.188;17.134;2023-03-14T12:04:47;13.30;99.90
12408;DHT22;6268;48.188;17.134;2023-03-14T12:07:28;13.30;99.90
12408;DHT22;6268;48.188;17.134;2023-03-14T12:10:04;13.20;99.90
12408;DHT22;6268;48.188;17.134;2023-03-14T12:12:33;13.20;99.90
12408;DHT22;6268;48.188;17.134;2023-03-14T12:15:05;13.20;99.90
12408;DHT22;6268;48.188;17.134;2023-03-14T12:17:54;13.30;99.90
12408;DHT22;6268;48.188;17.134;2023-03-14T12:20:24;13.30;99.90
12408;DHT22;6268;48.188;17.134;2023-03-14T12:22:55;13.20;99.90
12408;DHT22;6268;48.188;17.134;2023-03-14T12:25:31;13.20;99.90
12408;DHT22;6268;48.188;17.134;2023-03-14T12:28:16;13.10;99.90
12408;DHT22;6268;48.188;17.134;2023-03-14T12:30:47;13.00;99.90
12408;DHT22;6268;48.188;17.134;2023-03-14T12:33:27;12.90;99.90
12408;DHT22;6268;48.188;17.134;2023-03-14T12:39:25;12.70;99.90
12408;DHT22;6268;48.188;17.134;2023-03-14T12:42:07;12.50;99.90
12408;DHT22;6268;48.188;17.134;2023-03-14T12:44:41;12.40;99.90
12408;DHT22;6268;48.188;17.134;2023-03-14T12:50:46;12.20;99.90
12408;DHT22;6268;48.188;17.134;2023-03-14T12:53:58;12.20;99.90
12408;DHT22;6268;48.188;17.134;2023-03-14T12:56:56;12.20;99.90
12408;DHT22;6268;48.188;17.134;2023-03-14T12:59:34;12.30;99.90
12408;DHT22;6268;48.188;17.134;2023-03-14T13:02:22;12.20;99.90
12408;DHT22;6268;48.188;17.134;2023-03-14T13:04:59;12.00;99.90
12408;DHT22;6268;48.188;17.134;2023-03-14T13:08:04;12.00;99.90
12408;DHT22;6268;48.188;17.134;2023-03-14T13:10:45;11.90;99.90
12408;DHT22;6268;48.188;17.134;2023-03-14T13:13:20;11.80;99.90
12408;DHT22;6268;48.188;17.134;2023-03-14T13:15:54;11.70;99.90
12408;DHT22;6268;48.188;17.134;2023-03-14T13:18:29;11.80;99.90
12408;DHT22;6268;48.188;17.134;2023-03-14T13:21:05;11.70;99.90
12408;DHT22;6268;48.188;17.134;2023-03-14T13:23:41;11.60;99.90
12408;DHT22;6268;48.188;17.134;2023-03-14T13:26:25;11.50;99.90
12408;DHT22;6268;48.188;17.134;2023-03-14T13:29:09;11.50;99.90
12408;DHT22;6268;48.188;17.134;2023-03-14T13:31:45;11.40;99.90
12408;DHT22;6268;48.188;17.134;2023-03-14T13:34:15;11.40;99.90
12408;DHT22;6268;48.188;17.134;2023-03-14T13:36:45;11.40;99.90
12408;DHT22;6268;48.188;17.134;2023-03-14T13:39:19;11.40;99.90
12408;DHT22;6268;48.188;17.134;2023-03-14T13:41:52;11.40;99.90
12408;DHT22;6268;48.188;17.134;2023-03-14T13:44:25;11.40;99.90
12408;DHT22;6268;48.188;17.134;2023-03-14T13:46:58;11.40;99.90
12408;DHT22;6268;48.188;17.134;2023-03-14T13:49:29;11.50;99.90
12408;DHT22;6268;48.188;17.134;2023-03-14T13:52:03;11.50;99.90
12408;DHT22;6268;48.188;17.134;2023-03-14T13:54:54;11.50;99.90
12408;DHT22;6268;48.188;17.134;2023-03-14T13:57:24;11.50;99.90
12408;DHT22;6268;48.188;17.134;2023-03-14T14:00:01;11.50;99.90
12408;DHT22;6268;48.188;17.134;2023-03-14T14:02:36;11.30;99.90
12408;DHT22;6268;48.188;17.134;2023-03-14T14:05:10;11.30;99.90
12408;DHT22;6268;48.188;17.134;2023-03-14T14:07:41;11.30;99.90
12408;DHT22;6268;48.188;17.134;2023-03-14T14:10:14;11.30;99.90
12408;DHT22;6268;48.188;17.134;2023-03-14T14:12:45;11.30;99.90
12408;DHT22;6268;48.188;17.134;2023-03-14T14:15:21;11.20;99.90
12408;DHT22;6268;48.188;17.134;2023-03-14T14:17:57;11.20;99.90
12408;DHT22;6268;48.188;17.134;2023-03-14T14:20:33;11.20;99.90
12408;DHT22;6268;48.188;17.134;2023-03-14T14:23:09;11.10;99.90
12408;DHT22;6268;48.188;17.134;2023-03-14T14:25:43;11.20;99.90
12408;DHT22;6268;48.188;17.134;2023-03-14T14:28:15;11.10;99.90
12408;DHT22;6268;48.188;17.134;2023-03-14T14:31:03;11.10;99.90
12408;DHT22;6268;48.188;17.134;2023-03-14T14:33:42;11.00;99.90
12408;DHT22;6268;48.188;17.134;2023-03-14T14:36:17;11.00;99.90
12408;DHT22;6268;48.188;17.134;2023-03-14T14:38:52;10.90;99.90
12408;DHT22;6268;48.188;17.134;2023-03-14T14:41:27;10.90;99.90
12408;DHT22;6268;48.188;17.134;2023-03-14T14:43:59;10.90;99.90
12408;DHT22;6268;48.188;17.134;2023-03-14T14:46:30;10.90;99.90
12408;DHT22;6268;48.188;17.134;2023-03-14T14:49:08;10.80;99.90
12408;DHT22;6268;48.188;17.134;2023-03-14T14:51:43;10.80;99.90
12408;DHT22;6268;48.188;17.134;2023-03-14T14:54:18;10.70;99.90
12408;DHT22;6268;48.188;17.134;2023-03-14T14:57:04;10.80;99.90
12408;DHT22;6268;48.188;17.134;2023-03-14T14:59:42;10.70;99.90
12408;DHT22;6268;48.188;17.134;2023-03-14T15:02:29;10.70;99.90
12408;DHT22;6268;48.188;17.134;2023-03-14T15:05:00;10.70;99.90
12408;DHT22;6268;48.188;17.134;2023-03-14T15:07:29;10.80;99.90
12408;DHT22;6268;48.188;17.134;2023-03-14T15:09:58;10.90;99.90
12408;DHT22;6268;48.188;17.134;2023-03-14T15:12:28;11.00;99.90
12408;DHT22;6268;48.188;17.134;2023-03-14T15:14:57;11.00;99.90
12408;DHT22;6268;48.188;17.134;2023-03-14T15:17:26;11.10;99.90
12408;DHT22;6268;48.188;17.134;2023-03-14T15:20:13;11.00;99.90
12408;DHT22;6268;48.188;17.134;2023-03-14T15:22:43;11.00;99.90
12408;DHT22;6268;48.188;17.134;2023-03-14T15:25:12;11.10;99.90
12408;DHT22;6268;48.188;17.134;2023-03-14T15:28:01;11.10;99.90
12408;DHT22;6268;48.188;17.134;2023-03-14T15:30:30;11.00;99.90
12408;DHT22;6268;48.188;17.134;2023-03-14T15:32:59;11.00;99.90
12408;DHT22;6268;48.188;17.134;2023-03-14T15:35:29;11.00;99.90
12408;DHT22;6268;48.188;17.134;2023-03-14T15:37:58;11.10;99.90
12408;DHT22;6268;48.188;17.134;2023-03-14T15:40:27;11.10;99.90
12408;DHT22;6268;48.188;17.134;2023-03-14T15:42:56;11.00;99.90
12408;DHT22;6268;48.188;17.134;2023-03-14T15:45:26;11.00;99.90
12408;DHT22;6268;48.188;17.134;2023-03-14T15:47:54;10.90;99.90
12408;DHT22;6268;48.188;17.134;2023-03-14T15:50:23;10.90;99.90
12408;DHT22;6268;48.188;17.134;2023-03-14T15:52:56;10.90;99.90
12408;DHT22;6268;48.188;17.134;2023-03-14T15:55:25;10.90;99.90
12408;DHT22;6268;48.188;17.134;2023-03-14T15:57:54;10.90;99.90
12408;DHT22;6268;48.188;17.134;2023-03-14T16:00:23;10.80;99.90
12408;DHT22;6268;48.188;17.134;2023-03-14T16:02:52;10.80;99.90
12408;DHT22;6268;48.188;17.134;2023-03-14T16:05:21;10.80;99.90
12408;DHT22;6268;48.188;17.134;2023-03-14T16:07:49;10.80;99.90
12408;DHT22;6268;48.188;17.134;2023-03-14T16:10:20;10.80;99.90
12408;DHT22;6268;48.188;17.134;2023-03-14T16:12:49;10.80;99.90
12408;DHT22;6268;48.188;17.134;2023-03-14T16:15:18;10.90;99.90
12408;DHT22;6268;48.188;17.134;2023-03-14T16:17:47;10.80;99.90
12408;DHT22;6268;48.188;17.134;2023-03-14T16:20:20;10.60;99.90
12408;DHT22;6268;48.188;17.134;2023-03-14T16:22:49;10.60;99.90
12408;DHT22;6268;48.188;17.134;2023-03-14T16:25:19;10.60;99.90
12408;DHT22;6268;48.188;17.134;2023-03-14T16:27:48;10.60;99.90
12408;DHT22;6268;48.188;17.134;2023-03-14T16:30:34;10.50;99.90